KSNA

John Wayne-Orange County Airport

Santa Ana, California, USA
METAR KSNA 192053Z 33003KT 6SM HZ BKN200 21/13 A3000 RMK AO2 SLP159 T02060128 58022
Observed Flight Rules
Nov-19 @ 20:53 UTC (an hour ago) Visual Flight Rules
Wind Visibility Clouds Conditions
330° at 3 knots 6 miles
  • Broken at 20,000' AGL
  • Haze
Temperatures Readings
Current 21°C / 70°F
Dewpoint 13°C / 55°F
Humidity 60%
Altimeter 30" Hg
Pressure 1015.9 hPa
Elevation 16
METAR KSNA 192053Z 33003KT 6SM HZ BKN200 21/13 A3000 RMK AO2 SLP159 T02060128 58022
Observed Flight Rules
Nov-19 @ 20:53 UTC
(an hour ago)
VFR
Wind Visibility
330° at 3 knots 6 miles
Clouds
  • Broken at 20,000' AGL
Conditions
  • Haze
Temperature Dewpoint
21°C / 70°F 13°C / 55°F
Humidity Altimeter Pressure
60% 30" Hg 1015.9 hPa